sensor_id;sensor_type;location;lat;lon;timestamp;P1;durP1;ratioP1;P2;durP2;ratioP2
12511;SDS011;6321;53.798;10.382;2023-03-01T00:02:12;9.40;;;5.57;;
12511;SDS011;6321;53.798;10.382;2023-03-01T00:04:38;7.83;;;5.10;;
12511;SDS011;6321;53.798;10.382;2023-03-01T00:07:04;7.80;;;4.90;;
12511;SDS011;6321;53.798;10.382;2023-03-01T00:09:30;8.93;;;5.20;;
12511;SDS011;6321;53.798;10.382;2023-03-01T00:11:55;7.40;;;5.80;;
12511;SDS011;6321;53.798;10.382;2023-03-01T00:14:21;8.67;;;5.37;;
12511;SDS011;6321;53.798;10.382;2023-03-01T00:16:48;7.77;;;5.10;;
12511;SDS011;6321;53.798;10.382;2023-03-01T00:19:16;8.10;;;5.47;;
12511;SDS011;6321;53.798;10.382;2023-03-01T00:21:42;7.07;;;5.10;;
12511;SDS011;6321;53.798;10.382;2023-03-01T00:24:08;6.83;;;4.80;;
12511;SDS011;6321;53.798;10.382;2023-03-01T00:26:34;9.07;;;4.90;;
12511;SDS011;6321;53.798;10.382;2023-03-01T00:29:00;7.57;;;4.90;;
12511;SDS011;6321;53.798;10.382;2023-03-01T00:31:27;7.70;;;4.90;;
12511;SDS011;6321;53.798;10.382;2023-03-01T00:33:58;7.73;;;5.00;;
12511;SDS011;6321;53.798;10.382;2023-03-01T00:36:25;7.93;;;5.53;;
12511;SDS011;6321;53.798;10.382;2023-03-01T00:38:51;7.03;;;5.20;;
12511;SDS011;6321;53.798;10.382;2023-03-01T00:41:18;10.07;;;5.13;;
12511;SDS011;6321;53.798;10.382;2023-03-01T00:43:44;5.93;;;5.00;;
12511;SDS011;6321;53.798;10.382;2023-03-01T00:46:17;7.47;;;4.90;;
12511;SDS011;6321;53.798;10.382;2023-03-01T00:48:44;5.97;;;4.90;;
12511;SDS011;6321;53.798;10.382;2023-03-01T00:51:11;6.03;;;4.60;;
12511;SDS011;6321;53.798;10.382;2023-03-01T00:53:37;9.27;;;4.93;;
12511;SDS011;6321;53.798;10.382;2023-03-01T00:56:04;8.87;;;5.60;;
12511;SDS011;6321;53.798;10.382;2023-03-01T00:58:31;7.33;;;5.10;;
12511;SDS011;6321;53.798;10.382;2023-03-01T01:00:57;6.43;;;5.30;;
12511;SDS011;6321;53.798;10.382;2023-03-01T01:03:23;6.27;;;5.37;;
12511;SDS011;6321;53.798;10.382;2023-03-01T01:05:50;10.07;;;5.30;;
12511;SDS011;6321;53.798;10.382;2023-03-01T01:08:16;7.17;;;5.50;;
12511;SDS011;6321;53.798;10.382;2023-03-01T01:10:43;6.93;;;4.80;;
12511;SDS011;6321;53.798;10.382;2023-03-01T01:13:09;7.03;;;4.83;;
12511;SDS011;6321;53.798;10.382;2023-03-01T01:15:35;10.70;;;5.50;;
12511;SDS011;6321;53.798;10.382;2023-03-01T01:18:01;7.07;;;4.90;;
12511;SDS011;6321;53.798;10.382;2023-03-01T01:20:27;7.30;;;5.27;;
12511;SDS011;6321;53.798;10.382;2023-03-01T01:22:53;9.80;;;5.13;;
12511;SDS011;6321;53.798;10.382;2023-03-01T01:25:19;7.30;;;5.27;;
12511;SDS011;6321;53.798;10.382;2023-03-01T01:27:45;8.10;;;5.23;;
12511;SDS011;6321;53.798;10.382;2023-03-01T01:30:11;6.17;;;5.37;;
12511;SDS011;6321;53.798;10.382;2023-03-01T01:32:38;7.73;;;5.30;;
12511;SDS011;6321;53.798;10.382;2023-03-01T01:35:03;6.27;;;5.00;;
12511;SDS011;6321;53.798;10.382;2023-03-01T01:37:29;6.93;;;5.43;;
12511;SDS011;6321;53.798;10.382;2023-03-01T01:39:59;7.90;;;5.27;;
12511;SDS011;6321;53.798;10.382;2023-03-01T01:42:25;6.37;;;5.67;;
12511;SDS011;6321;53.798;10.382;2023-03-01T01:47:35;7.37;;;5.60;;
12511;SDS011;6321;53.798;10.382;2023-03-01T01:50:02;8.13;;;5.37;;
12511;SDS011;6321;53.798;10.382;2023-03-01T01:52:31;6.47;;;5.07;;
12511;SDS011;6321;53.798;10.382;2023-03-01T01:55:02;11.33;;;5.80;;
12511;SDS011;6321;53.798;10.382;2023-03-01T01:57:33;8.07;;;5.53;;
12511;SDS011;6321;53.798;10.382;2023-03-01T02:00:06;9.87;;;5.07;;
12511;SDS011;6321;53.798;10.382;2023-03-01T02:02:34;6.93;;;4.90;;
12511;SDS011;6321;53.798;10.382;2023-03-01T02:05:02;8.23;;;5.70;;
12511;SDS011;6321;53.798;10.382;2023-03-01T02:07:29;6.97;;;5.10;;
12511;SDS011;6321;53.798;10.382;2023-03-01T02:09:55;6.43;;;5.50;;
12511;SDS011;6321;53.798;10.382;2023-03-01T02:12:23;9.33;;;5.20;;
12511;SDS011;6321;53.798;10.382;2023-03-01T02:14:49;7.57;;;4.80;;
12511;SDS011;6321;53.798;10.382;2023-03-01T02:17:16;8.40;;;5.47;;
12511;SDS011;6321;53.798;10.382;2023-03-01T02:22:24;5.57;;;5.00;;
12511;SDS011;6321;53.798;10.382;2023-03-01T02:24:59;8.27;;;5.73;;
12511;SDS011;6321;53.798;10.382;2023-03-01T02:27:29;7.90;;;5.73;;
12511;SDS011;6321;53.798;10.382;2023-03-01T02:29:57;9.47;;;5.63;;
12511;SDS011;6321;53.798;10.382;2023-03-01T02:32:23;7.03;;;6.20;;
12511;SDS011;6321;53.798;10.382;2023-03-01T02:34:53;8.17;;;5.30;;
12511;SDS011;6321;53.798;10.382;2023-03-01T02:37:19;7.70;;;5.33;;
12511;SDS011;6321;53.798;10.382;2023-03-01T02:39:49;8.93;;;5.33;;
12511;SDS011;6321;53.798;10.382;2023-03-01T02:42:18;7.90;;;5.87;;
12511;SDS011;6321;53.798;10.382;2023-03-01T02:44:46;8.60;;;5.87;;
12511;SDS011;6321;53.798;10.382;2023-03-01T02:47:12;11.13;;;6.07;;
12511;SDS011;6321;53.798;10.382;2023-03-01T02:49:37;9.73;;;5.73;;
12511;SDS011;6321;53.798;10.382;2023-03-01T02:57:14;9.07;;;5.73;;
12511;SDS011;6321;53.798;10.382;2023-03-01T02:59:40;8.80;;;4.77;;
12511;SDS011;6321;53.798;10.382;2023-03-01T03:02:08;8.17;;;5.17;;
12511;SDS011;6321;53.798;10.382;2023-03-01T03:04:45;7.00;;;5.47;;
12511;SDS011;6321;53.798;10.382;2023-03-01T03:07:11;8.70;;;5.50;;
12511;SDS011;6321;53.798;10.382;2023-03-01T03:09:37;8.30;;;5.93;;
12511;SDS011;6321;53.798;10.382;2023-03-01T03:12:03;9.20;;;6.50;;
12511;SDS011;6321;53.798;10.382;2023-03-01T03:14:29;12.07;;;6.80;;
12511;SDS011;6321;53.798;10.382;2023-03-01T03:16:55;7.80;;;6.57;;
12511;SDS011;6321;53.798;10.382;2023-03-01T03:19:20;9.80;;;6.30;;
12511;SDS011;6321;53.798;10.382;2023-03-01T03:21:46;8.17;;;5.87;;
12511;SDS011;6321;53.798;10.382;2023-03-01T03:24:12;9.23;;;6.27;;
12511;SDS011;6321;53.798;10.382;2023-03-01T03:26:38;7.97;;;6.20;;
12511;SDS011;6321;53.798;10.382;2023-03-01T03:29:04;9.23;;;6.80;;
12511;SDS011;6321;53.798;10.382;2023-03-01T03:31:30;12.70;;;6.77;;
12511;SDS011;6321;53.798;10.382;2023-03-01T03:33:56;9.17;;;6.73;;
12511;SDS011;6321;53.798;10.382;2023-03-01T03:36:24;11.53;;;7.57;;
12511;SDS011;6321;53.798;10.382;2023-03-01T03:38:51;10.67;;;7.10;;
12511;SDS011;6321;53.798;10.382;2023-03-01T03:41:16;10.23;;;7.37;;
12511;SDS011;6321;53.798;10.382;2023-03-01T03:43:42;11.63;;;7.07;;
12511;SDS011;6321;53.798;10.382;2023-03-01T03:46:09;8.83;;;6.67;;
12511;SDS011;6321;53.798;10.382;2023-03-01T03:48:36;12.00;;;6.90;;
12511;SDS011;6321;53.798;10.382;2023-03-01T03:51:02;9.10;;;6.73;;
12511;SDS011;6321;53.798;10.382;2023-03-01T03:53:31;10.77;;;6.80;;
12511;SDS011;6321;53.798;10.382;2023-03-01T03:55:58;10.60;;;7.37;;
12511;SDS011;6321;53.798;10.382;2023-03-01T03:58:24;10.00;;;7.83;;
12511;SDS011;6321;53.798;10.382;2023-03-01T04:00:51;9.17;;;7.83;;
12511;SDS011;6321;53.798;10.382;2023-03-01T04:03:18;9.13;;;6.73;;
12511;SDS011;6321;53.798;10.382;2023-03-01T04:05:45;12.03;;;8.23;;
12511;SDS011;6321;53.798;10.382;2023-03-01T04:08:11;10.83;;;8.10;;
12511;SDS011;6321;53.798;10.382;2023-03-01T04:10:40;10.87;;;7.90;;
12511;SDS011;6321;53.798;10.382;2023-03-01T04:13:06;10.27;;;7.53;;
12511;SDS011;6321;53.798;10.382;2023-03-01T04:15:33;12.57;;;8.03;;
12511;SDS011;6321;53.798;10.382;2023-03-01T04:17:59;9.17;;;7.17;;
12511;SDS011;6321;53.798;10.382;2023-03-01T04:20:29;12.30;;;7.80;;
12511;SDS011;6321;53.798;10.382;2023-03-01T04:23:00;12.03;;;8.10;;
12511;SDS011;6321;53.798;10.382;2023-03-01T04:25:38;13.93;;;8.90;;
12511;SDS011;6321;53.798;10.382;2023-03-01T04:28:04;12.83;;;8.10;;
12511;SDS011;6321;53.798;10.382;2023-03-01T04:30:30;10.07;;;8.00;;
12511;SDS011;6321;53.798;10.382;2023-03-01T04:33:00;10.93;;;8.27;;
12511;SDS011;6321;53.798;10.382;2023-03-01T04:35:26;10.67;;;7.93;;
12511;SDS011;6321;53.798;10.382;2023-03-01T04:37:52;10.80;;;7.80;;
12511;SDS011;6321;53.798;10.382;2023-03-01T04:40:18;10.80;;;8.07;;
12511;SDS011;6321;53.798;10.382;2023-03-01T04:42:46;11.13;;;7.97;;
12511;SDS011;6321;53.798;10.382;2023-03-01T04:45:12;13.10;;;8.67;;
12511;SDS011;6321;53.798;10.382;2023-03-01T04:47:39;11.63;;;7.73;;
12511;SDS011;6321;53.798;10.382;2023-03-01T04:50:05;11.33;;;8.40;;
12511;SDS011;6321;53.798;10.382;2023-03-01T04:52:31;11.57;;;7.73;;
12511;SDS011;6321;53.798;10.382;2023-03-01T04:54:57;11.37;;;7.57;;
12511;SDS011;6321;53.798;10.382;2023-03-01T04:57:23;10.23;;;7.90;;
12511;SDS011;6321;53.798;10.382;2023-03-01T04:59:49;10.00;;;7.57;;
12511;SDS011;6321;53.798;10.382;2023-03-01T05:02:15;11.73;;;7.53;;
12511;SDS011;6321;53.798;10.382;2023-03-01T05:04:40;12.40;;;8.37;;
12511;SDS011;6321;53.798;10.382;2023-03-01T05:07:06;12.63;;;8.10;;
12511;SDS011;6321;53.798;10.382;2023-03-01T05:09:33;12.77;;;8.77;;
12511;SDS011;6321;53.798;10.382;2023-03-01T05:11:59;14.63;;;7.97;;
12511;SDS011;6321;53.798;10.382;2023-03-01T05:14:25;16.07;;;8.73;;
12511;SDS011;6321;53.798;10.382;2023-03-01T05:16:51;12.63;;;7.70;;
12511;SDS011;6321;53.798;10.382;2023-03-01T05:19:16;15.27;;;8.40;;
12511;SDS011;6321;53.798;10.382;2023-03-01T05:21:47;10.67;;;7.60;;
12511;SDS011;6321;53.798;10.382;2023-03-01T05:24:29;13.93;;;8.03;;
12511;SDS011;6321;53.798;10.382;2023-03-01T05:26:55;11.17;;;8.50;;
12511;SDS011;6321;53.798;10.382;2023-03-01T05:29:22;12.30;;;8.40;;
12511;SDS011;6321;53.798;10.382;2023-03-01T05:31:52;11.37;;;9.00;;
12511;SDS011;6321;53.798;10.382;2023-03-01T05:34:19;13.40;;;8.53;;
12511;SDS011;6321;53.798;10.382;2023-03-01T05:36:47;12.97;;;8.60;;
12511;SDS011;6321;53.798;10.382;2023-03-01T05:39:13;10.10;;;7.80;;
12511;SDS011;6321;53.798;10.382;2023-03-01T05:41:39;14.80;;;9.10;;
12511;SDS011;6321;53.798;10.382;2023-03-01T05:44:06;11.93;;;8.63;;
12511;SDS011;6321;53.798;10.382;2023-03-01T05:46:32;13.00;;;8.33;;
12511;SDS011;6321;53.798;10.382;2023-03-01T05:48:57;12.90;;;8.13;;
12511;SDS011;6321;53.798;10.382;2023-03-01T05:51:24;13.33;;;9.20;;
12511;SDS011;6321;53.798;10.382;2023-03-01T05:53:51;16.67;;;8.87;;
12511;SDS011;6321;53.798;10.382;2023-03-01T05:56:16;16.23;;;10.50;;
12511;SDS011;6321;53.798;10.382;2023-03-01T05:58:42;12.27;;;9.87;;
12511;SDS011;6321;53.798;10.382;2023-03-01T06:01:12;17.80;;;10.00;;
12511;SDS011;6321;53.798;10.382;2023-03-01T06:03:38;16.47;;;10.87;;
12511;SDS011;6321;53.798;10.382;2023-03-01T06:06:04;11.13;;;8.87;;
12511;SDS011;6321;53.798;10.382;2023-03-01T06:08:30;17.33;;;9.30;;
12511;SDS011;6321;53.798;10.382;2023-03-01T06:10:56;13.27;;;9.47;;
12511;SDS011;6321;53.798;10.382;2023-03-01T06:13:22;15.00;;;10.60;;
12511;SDS011;6321;53.798;10.382;2023-03-01T06:15:48;21.07;;;13.70;;
12511;SDS011;6321;53.798;10.382;2023-03-01T06:18:15;22.43;;;13.00;;
12511;SDS011;6321;53.798;10.382;2023-03-01T06:20:40;17.37;;;11.43;;
12511;SDS011;6321;53.798;10.382;2023-03-01T06:23:06;17.30;;;10.53;;
12511;SDS011;6321;53.798;10.382;2023-03-01T06:25:32;17.40;;;10.70;;
12511;SDS011;6321;53.798;10.382;2023-03-01T06:27:58;18.20;;;10.53;;
12511;SDS011;6321;53.798;10.382;2023-03-01T06:30:25;17.77;;;11.97;;
12511;SDS011;6321;53.798;10.382;2023-03-01T06:32:51;21.37;;;13.10;;
12511;SDS011;6321;53.798;10.382;2023-03-01T06:35:17;16.40;;;9.63;;
12511;SDS011;6321;53.798;10.382;2023-03-01T06:37:44;14.17;;;10.23;;
12511;SDS011;6321;53.798;10.382;2023-03-01T06:40:10;16.43;;;9.30;;
12511;SDS011;6321;53.798;10.382;2023-03-01T06:42:37;13.47;;;9.60;;
12511;SDS011;6321;53.798;10.382;2023-03-01T06:45:03;13.37;;;9.17;;
12511;SDS011;6321;53.798;10.382;2023-03-01T06:47:30;17.20;;;10.13;;
12511;SDS011;6321;53.798;10.382;2023-03-01T06:49:57;18.90;;;10.50;;
12511;SDS011;6321;53.798;10.382;2023-03-01T06:52:23;21.47;;;11.77;;
12511;SDS011;6321;53.798;10.382;2023-03-01T06:54:49;18.50;;;11.73;;
12511;SDS011;6321;53.798;10.382;2023-03-01T06:57:15;20.03;;;12.13;;
12511;SDS011;6321;53.798;10.382;2023-03-01T06:59:41;21.30;;;12.70;;
12511;SDS011;6321;53.798;10.382;2023-03-01T07:02:09;17.47;;;11.00;;
12511;SDS011;6321;53.798;10.382;2023-03-01T07:04:36;15.43;;;9.93;;
12511;SDS011;6321;53.798;10.382;2023-03-01T07:07:02;18.47;;;11.10;;
12511;SDS011;6321;53.798;10.382;2023-03-01T07:09:28;16.07;;;11.57;;
12511;SDS011;6321;53.798;10.382;2023-03-01T07:11:54;16.73;;;10.77;;
12511;SDS011;6321;53.798;10.382;2023-03-01T07:14:20;20.47;;;13.07;;
12511;SDS011;6321;53.798;10.382;2023-03-01T07:16:46;22.60;;;13.40;;
12511;SDS011;6321;53.798;10.382;2023-03-01T07:19:12;27.13;;;16.70;;
12511;SDS011;6321;53.798;10.382;2023-03-01T07:21:37;31.13;;;18.10;;
12511;SDS011;6321;53.798;10.382;2023-03-01T07:24:05;31.77;;;18.33;;
12511;SDS011;6321;53.798;10.382;2023-03-01T07:26:31;33.27;;;18.30;;
12511;SDS011;6321;53.798;10.382;2023-03-01T07:29:01;30.90;;;18.00;;
12511;SDS011;6321;53.798;10.382;2023-03-01T07:31:27;30.23;;;18.10;;
12511;SDS011;6321;53.798;10.382;2023-03-01T07:33:53;30.20;;;19.13;;
12511;SDS011;6321;53.798;10.382;2023-03-01T07:36:19;35.53;;;19.97;;
12511;SDS011;6321;53.798;10.382;2023-03-01T07:38:45;37.37;;;21.00;;
12511;SDS011;6321;53.798;10.382;2023-03-01T07:41:11;37.63;;;22.03;;
12511;SDS011;6321;53.798;10.382;2023-03-01T07:43:38;37.37;;;21.17;;
12511;SDS011;6321;53.798;10.382;2023-03-01T07:46:04;48.40;;;25.77;;
12511;SDS011;6321;53.798;10.382;2023-03-01T07:48:30;36.50;;;22.77;;
12511;SDS011;6321;53.798;10.382;2023-03-01T07:51:00;44.73;;;23.70;;
12511;SDS011;6321;53.798;10.382;2023-03-01T07:53:26;46.60;;;26.27;;
12511;SDS011;6321;53.798;10.382;2023-03-01T07:56:05;63.70;;;26.43;;
12511;SDS011;6321;53.798;10.382;2023-03-01T07:58:33;45.37;;;24.37;;
12511;SDS011;6321;53.798;10.382;2023-03-01T08:01:03;42.73;;;21.50;;
12511;SDS011;6321;53.798;10.382;2023-03-01T08:03:29;37.53;;;21.30;;
12511;SDS011;6321;53.798;10.382;2023-03-01T08:05:55;39.80;;;21.80;;
12511;SDS011;6321;53.798;10.382;2023-03-01T08:08:21;39.70;;;21.90;;
12511;SDS011;6321;53.798;10.382;2023-03-01T08:10:47;42.70;;;20.90;;
12511;SDS011;6321;53.798;10.382;2023-03-01T08:13:13;38.47;;;21.37;;
12511;SDS011;6321;53.798;10.382;2023-03-01T08:15:39;41.67;;;21.87;;
12511;SDS011;6321;53.798;10.382;2023-03-01T08:18:05;36.77;;;20.90;;
12511;SDS011;6321;53.798;10.382;2023-03-01T08:20:31;37.13;;;20.90;;
12511;SDS011;6321;53.798;10.382;2023-03-01T08:22:57;39.30;;;20.37;;
12511;SDS011;6321;53.798;10.382;2023-03-01T08:25:23;34.83;;;20.43;;
12511;SDS011;6321;53.798;10.382;2023-03-01T08:27:49;35.27;;;19.13;;
12511;SDS011;6321;53.798;10.382;2023-03-01T08:30:15;34.80;;;19.87;;
12511;SDS011;6321;53.798;10.382;2023-03-01T08:32:41;35.40;;;19.77;;
12511;SDS011;6321;53.798;10.382;2023-03-01T08:35:07;38.90;;;19.63;;
12511;SDS011;6321;53.798;10.382;2023-03-01T08:37:33;35.03;;;19.43;;
12511;SDS011;6321;53.798;10.382;2023-03-01T08:39:59;38.67;;;21.17;;
12511;SDS011;6321;53.798;10.382;2023-03-01T08:42:26;38.00;;;19.10;;
12511;SDS011;6321;53.798;10.382;2023-03-01T08:44:52;33.23;;;19.43;;
12511;SDS011;6321;53.798;10.382;2023-03-01T08:47:17;35.93;;;19.63;;
12511;SDS011;6321;53.798;10.382;2023-03-01T08:49:43;33.13;;;18.67;;
12511;SDS011;6321;53.798;10.382;2023-03-01T08:52:09;34.87;;;19.77;;
12511;SDS011;6321;53.798;10.382;2023-03-01T08:54:35;34.83;;;18.87;;
12511;SDS011;6321;53.798;10.382;2023-03-01T08:57:02;34.93;;;18.93;;
12511;SDS011;6321;53.798;10.382;2023-03-01T08:59:28;30.93;;;19.17;;
12511;SDS011;6321;53.798;10.382;2023-03-01T09:01:54;36.27;;;20.80;;
12511;SDS011;6321;53.798;10.382;2023-03-01T09:04:20;33.80;;;21.17;;
12511;SDS011;6321;53.798;10.382;2023-03-01T09:06:46;35.80;;;20.07;;
12511;SDS011;6321;53.798;10.382;2023-03-01T09:09:14;36.73;;;21.37;;
12511;SDS011;6321;53.798;10.382;2023-03-01T09:11:41;37.20;;;20.63;;
12511;SDS011;6321;53.798;10.382;2023-03-01T09:14:07;37.23;;;20.80;;
12511;SDS011;6321;53.798;10.382;2023-03-01T09:16:33;36.00;;;21.33;;
12511;SDS011;6321;53.798;10.382;2023-03-01T09:19:00;36.37;;;21.63;;
12511;SDS011;6321;53.798;10.382;2023-03-01T09:21:27;35.47;;;19.20;;
12511;SDS011;6321;53.798;10.382;2023-03-01T09:23:53;31.70;;;18.37;;
12511;SDS011;6321;53.798;10.382;2023-03-01T09:26:21;35.83;;;21.93;;
12511;SDS011;6321;53.798;10.382;2023-03-01T09:28:48;37.33;;;21.57;;
12511;SDS011;6321;53.798;10.382;2023-03-01T09:31:16;42.73;;;22.63;;
12511;SDS011;6321;53.798;10.382;2023-03-01T09:33:42;36.17;;;20.10;;
12511;SDS011;6321;53.798;10.382;2023-03-01T09:36:11;37.27;;;22.07;;
12511;SDS011;6321;53.798;10.382;2023-03-01T09:38:37;33.13;;;21.50;;
12511;SDS011;6321;53.798;10.382;2023-03-01T09:41:09;35.03;;;21.00;;
12511;SDS011;6321;53.798;10.382;2023-03-01T09:46:06;34.27;;;20.73;;
12511;SDS011;6321;53.798;10.382;2023-03-01T09:48:37;38.53;;;21.37;;
12511;SDS011;6321;53.798;10.382;2023-03-01T09:51:07;39.40;;;23.47;;
12511;SDS011;6321;53.798;10.382;2023-03-01T09:53:34;49.27;;;27.93;;
12511;SDS011;6321;53.798;10.382;2023-03-01T10:03:57;76.37;;;37.93;;
12511;SDS011;6321;53.798;10.382;2023-03-01T10:06:26;67.70;;;39.23;;
12511;SDS011;6321;53.798;10.382;2023-03-01T10:11:53;65.97;;;39.43;;
12511;SDS011;6321;53.798;10.382;2023-03-01T10:14:34;73.43;;;41.97;;
12511;SDS011;6321;53.798;10.382;2023-03-01T10:17:02;71.07;;;42.07;;
12511;SDS011;6321;53.798;10.382;2023-03-01T10:19:31;60.90;;;35.63;;
12511;SDS011;6321;53.798;10.382;2023-03-01T10:22:00;54.70;;;32.43;;
12511;SDS011;6321;53.798;10.382;2023-03-01T10:24:28;53.67;;;30.20;;
12511;SDS011;6321;53.798;10.382;2023-03-01T10:26:57;47.00;;;28.03;;
12511;SDS011;6321;53.798;10.382;2023-03-01T10:29:28;52.80;;;30.03;;
12511;SDS011;6321;53.798;10.382;2023-03-01T10:31:56;49.27;;;27.57;;
12511;SDS011;6321;53.798;10.382;2023-03-01T10:34:30;45.20;;;25.93;;
12511;SDS011;6321;53.798;10.382;2023-03-01T10:36:57;40.33;;;24.43;;
12511;SDS011;6321;53.798;10.382;2023-03-01T10:39:26;27.10;;;17.00;;
12511;SDS011;6321;53.798;10.382;2023-03-01T10:42:00;25.60;;;15.93;;
12511;SDS011;6321;53.798;10.382;2023-03-01T10:47:01;27.83;;;15.50;;
12511;SDS011;6321;53.798;10.382;2023-03-01T10:49:27;28.07;;;16.80;;
12511;SDS011;6321;53.798;10.382;2023-03-01T10:51:54;22.53;;;14.27;;
12511;SDS011;6321;53.798;10.382;2023-03-01T10:56:56;26.20;;;16.67;;
12511;SDS011;6321;53.798;10.382;2023-03-01T11:02:14;25.90;;;16.67;;
12511;SDS011;6321;53.798;10.382;2023-03-01T11:05:00;29.37;;;17.27;;
12511;SDS011;6321;53.798;10.382;2023-03-01T11:07:26;26.50;;;17.40;;
12511;SDS011;6321;53.798;10.382;2023-03-01T11:09:52;24.10;;;15.47;;
12511;SDS011;6321;53.798;10.382;2023-03-01T11:12:19;24.03;;;14.63;;
12511;SDS011;6321;53.798;10.382;2023-03-01T11:14:47;23.27;;;15.30;;
12511;SDS011;6321;53.798;10.382;2023-03-01T11:17:17;20.20;;;13.83;;
12511;SDS011;6321;53.798;10.382;2023-03-01T11:19:48;22.87;;;14.53;;
12511;SDS011;6321;53.798;10.382;2023-03-01T11:22:25;20.10;;;13.07;;
12511;SDS011;6321;53.798;10.382;2023-03-01T11:24:51;22.13;;;13.93;;
12511;SDS011;6321;53.798;10.382;2023-03-01T11:27:21;20.37;;;13.80;;
12511;SDS011;6321;53.798;10.382;2023-03-01T11:29:51;18.73;;;12.57;;
12511;SDS011;6321;53.798;10.382;2023-03-01T11:32:18;17.30;;;11.27;;
12511;SDS011;6321;53.798;10.382;2023-03-01T11:39:58;15.60;;;10.83;;
12511;SDS011;6321;53.798;10.382;2023-03-01T11:42:28;15.80;;;11.43;;
12511;SDS011;6321;53.798;10.382;2023-03-01T11:45:06;13.87;;;10.23;;
12511;SDS011;6321;53.798;10.382;2023-03-01T11:50:05;16.03;;;10.93;;
12511;SDS011;6321;53.798;10.382;2023-03-01T11:52:36;18.93;;;12.37;;
12511;SDS011;6321;53.798;10.382;2023-03-01T11:55:49;19.30;;;11.37;;
12511;SDS011;6321;53.798;10.382;2023-03-01T11:58:05;20.83;;;13.00;;
12511;SDS011;6321;53.798;10.382;2023-03-01T12:05:56;21.13;;;13.13;;
12511;SDS011;6321;53.798;10.382;2023-03-01T12:11:11;21.60;;;13.37;;
12511;SDS011;6321;53.798;10.382;2023-03-01T12:26:50;28.57;;;13.20;;
12511;SDS011;6321;53.798;10.382;2023-03-01T12:34:35;17.83;;;11.83;;
12511;SDS011;6321;53.798;10.382;2023-03-01T12:37:11;20.53;;;14.00;;
12511;SDS011;6321;53.798;10.382;2023-03-01T12:42:20;14.27;;;10.00;;
12511;SDS011;6321;53.798;10.382;2023-03-01T12:44:54;16.93;;;10.77;;
12511;SDS011;6321;53.798;10.382;2023-03-01T12:50:17;14.93;;;10.13;;
12511;SDS011;6321;53.798;10.382;2023-03-01T12:52:46;15.17;;;10.13;;
12511;SDS011;6321;53.798;10.382;2023-03-01T12:58:01;11.73;;;8.83;;
12511;SDS011;6321;53.798;10.382;2023-03-01T13:01:05;10.50;;;8.47;;
12511;SDS011;6321;53.798;10.382;2023-03-01T13:03:28;7.80;;;7.00;;
12511;SDS011;6321;53.798;10.382;2023-03-01T13:08:44;8.13;;;6.23;;
12511;SDS011;6321;53.798;10.382;2023-03-01T13:11:18;7.70;;;6.07;;
12511;SDS011;6321;53.798;10.382;2023-03-01T13:13:44;10.30;;;6.80;;
12511;SDS011;6321;53.798;10.382;2023-03-01T13:19:10;9.50;;;6.83;;
12511;SDS011;6321;53.798;10.382;2023-03-01T13:21:38;15.90;;;8.30;;
12511;SDS011;6321;53.798;10.382;2023-03-01T13:24:04;24.77;;;8.50;;
12511;SDS011;6321;53.798;10.382;2023-03-01T13:29:55;7.60;;;6.33;;
12511;SDS011;6321;53.798;10.382;2023-03-01T13:32:26;10.13;;;7.10;;
12511;SDS011;6321;53.798;10.382;2023-03-01T13:37:24;9.77;;;7.67;;
12511;SDS011;6321;53.798;10.382;2023-03-01T13:39:51;10.03;;;7.03;;
12511;SDS011;6321;53.798;10.382;2023-03-01T13:44:58;10.53;;;5.83;;
12511;SDS011;6321;53.798;10.382;2023-03-01T13:47:25;6.00;;;4.30;;
12511;SDS011;6321;53.798;10.382;2023-03-01T13:49:59;9.13;;;5.47;;
12511;SDS011;6321;53.798;10.382;2023-03-01T13:52:45;6.50;;;5.33;;
12511;SDS011;6321;53.798;10.382;2023-03-01T13:57:43;6.90;;;5.53;;
12511;SDS011;6321;53.798;10.382;2023-03-01T14:05:32;6.20;;;5.23;;
12511;SDS011;6321;53.798;10.382;2023-03-01T14:07:58;6.20;;;4.77;;
12511;SDS011;6321;53.798;10.382;2023-03-01T14:10:31;8.17;;;5.27;;
12511;SDS011;6321;53.798;10.382;2023-03-01T14:13:10;8.60;;;5.80;;
12511;SDS011;6321;53.798;10.382;2023-03-01T14:15:47;8.57;;;6.07;;
12511;SDS011;6321;53.798;10.382;2023-03-01T14:18:20;6.37;;;4.87;;
12511;SDS011;6321;53.798;10.382;2023-03-01T14:20:47;7.27;;;6.40;;
12511;SDS011;6321;53.798;10.382;2023-03-01T14:23:22;8.53;;;7.00;;
12511;SDS011;6321;53.798;10.382;2023-03-01T14:25:49;11.03;;;8.83;;
12511;SDS011;6321;53.798;10.382;2023-03-01T14:28:19;13.07;;;10.00;;
12511;SDS011;6321;53.798;10.382;2023-03-01T14:30:48;11.43;;;8.47;;
12511;SDS011;6321;53.798;10.382;2023-03-01T14:35:53;7.40;;;6.60;;
12511;SDS011;6321;53.798;10.382;2023-03-01T14:38:22;9.60;;;7.63;;
12511;SDS011;6321;53.798;10.382;2023-03-01T14:40:50;10.70;;;9.07;;
12511;SDS011;6321;53.798;10.382;2023-03-01T14:43:18;10.13;;;8.73;;
12511;SDS011;6321;53.798;10.382;2023-03-01T14:45:46;9.43;;;8.33;;
12511;SDS011;6321;53.798;10.382;2023-03-01T14:48:12;8.40;;;7.50;;
12511;SDS011;6321;53.798;10.382;2023-03-01T14:50:42;8.30;;;7.40;;
12511;SDS011;6321;53.798;10.382;2023-03-01T14:53:22;10.70;;;6.50;;
12511;SDS011;6321;53.798;10.382;2023-03-01T14:55:50;6.63;;;5.93;;
12511;SDS011;6321;53.798;10.382;2023-03-01T14:58:21;6.70;;;5.83;;
12511;SDS011;6321;53.798;10.382;2023-03-01T15:00:49;7.27;;;5.70;;
12511;SDS011;6321;53.798;10.382;2023-03-01T15:03:22;7.10;;;5.67;;
12511;SDS011;6321;53.798;10.382;2023-03-01T15:05:49;7.40;;;6.10;;
12511;SDS011;6321;53.798;10.382;2023-03-01T15:08:20;9.80;;;8.00;;
12511;SDS011;6321;53.798;10.382;2023-03-01T15:10:58;9.57;;;6.73;;
12511;SDS011;6321;53.798;10.382;2023-03-01T15:13:24;7.83;;;6.43;;
12511;SDS011;6321;53.798;10.382;2023-03-01T15:15:51;9.47;;;5.80;;
12511;SDS011;6321;53.798;10.382;2023-03-01T15:20:45;7.00;;;5.17;;
12511;SDS011;6321;53.798;10.382;2023-03-01T15:23:25;6.40;;;5.17;;
12511;SDS011;6321;53.798;10.382;2023-03-01T15:25:52;6.03;;;5.33;;
12511;SDS011;6321;53.798;10.382;2023-03-01T15:28:22;7.60;;;6.00;;
12511;SDS011;6321;53.798;10.382;2023-03-01T15:30:53;7.90;;;6.47;;
12511;SDS011;6321;53.798;10.382;2023-03-01T15:35:52;7.10;;;6.03;;
12511;SDS011;6321;53.798;10.382;2023-03-01T15:40:54;9.43;;;6.93;;
12511;SDS011;6321;53.798;10.382;2023-03-01T15:43:36;9.50;;;7.20;;
12511;SDS011;6321;53.798;10.382;2023-03-01T15:46:02;8.70;;;6.80;;
12511;SDS011;6321;53.798;10.382;2023-03-01T15:48:29;10.33;;;7.57;;
12511;SDS011;6321;53.798;10.382;2023-03-01T15:50:55;10.07;;;7.57;;
12511;SDS011;6321;53.798;10.382;2023-03-01T15:53:23;9.30;;;7.63;;
12511;SDS011;6321;53.798;10.382;2023-03-01T15:55:49;9.13;;;7.40;;
12511;SDS011;6321;53.798;10.382;2023-03-01T15:58:18;9.80;;;7.77;;
12511;SDS011;6321;53.798;10.382;2023-03-01T16:00:45;8.53;;;7.33;;
12511;SDS011;6321;53.798;10.382;2023-03-01T16:03:13;10.73;;;8.47;;
12511;SDS011;6321;53.798;10.382;2023-03-01T16:05:46;9.27;;;7.93;;
12511;SDS011;6321;53.798;10.382;2023-03-01T16:08:12;10.83;;;8.00;;
12511;SDS011;6321;53.798;10.382;2023-03-01T16:10:38;10.70;;;8.33;;
12511;SDS011;6321;53.798;10.382;2023-03-01T16:13:04;11.33;;;8.57;;
12511;SDS011;6321;53.798;10.382;2023-03-01T16:15:31;12.70;;;9.50;;
12511;SDS011;6321;53.798;10.382;2023-03-01T16:18:01;12.57;;;9.33;;
12511;SDS011;6321;53.798;10.382;2023-03-01T16:20:27;15.03;;;9.33;;
12511;SDS011;6321;53.798;10.382;2023-03-01T16:22:55;16.40;;;10.83;;
12511;SDS011;6321;53.798;10.382;2023-03-01T16:25:22;15.20;;;9.70;;